Time;durP1;ratioP1;P1;durP2;ratioP2;P2;SDS_P1;SDS_P2;PMS_P1;PMS_P2;Temp;Humidity;BMP_temperature;BMP_pressure;BME280_temperature;BME280_humidity;BME280_pressure;Samples;Min_cycle;Max_cycle;Signal;HPM_P1;HPM_P2
2021/10/05 00:01:17;;;;;;;;;;;;;;;;;;5040162;28;19924;-59
2021/10/05 00:03:44;;;;;;;;;;;;;;;;;;5044592;28;19925;-60
2021/10/05 00:06:11;;;;;;;;;;;;;;;;;;5048226;28;20018;-59
2021/10/05 00:08:38;;;;;;;;;;;;;;;;;;5050735;28;19929;-58
2021/10/05 00:11:05;;;;;;;;;;;;;;;;;;5048818;28;19924;-58
2021/10/05 00:13:32;;;;;;;;;;;;;;;;;;5046622;28;19932;-59
2021/10/05 00:15:59;;;;;;;;;;;;;;;;;;5045706;28;19932;-58
2021/10/05 00:18:26;;;;;;;;;;;;;;;;;;5050375;28;19932;-59
2021/10/05 00:20:52;;;;;;;;;;;;;;;;;;5050684;28;20289;-58
2021/10/05 00:23:19;;;;;;;;;;;;;;;;;;5042876;28;19925;-56
2021/10/05 00:25:46;;;;;;;;;;;;;;;;;;5046522;28;20180;-57
2021/10/05 00:28:13;;;;;;;;;;;;;;;;;;5051213;28;19925;-56
2021/10/05 00:30:40;;;;;;;;;;;;;;;;;;5048051;28;19925;-54
2021/10/05 00:33:07;;;;;;;;;;;;;;;;;;5049484;28;20308;-60
2021/10/05 00:35:34;;;;;;;;;;;;;;;;;;5053089;28;19925;-59
2021/10/05 00:38:01;;;;;;;;;;;;;;;;;;5054369;28;20359;-60
2021/10/05 00:40:28;;;;;;;;;;;;;;;;;;5052011;28;20312;-60
2021/10/05 00:42:55;;;;;;;;;;;;;;;;;;5048499;28;19952;-61
2021/10/05 00:45:22;;;;;;;;;;;;;;;;;;5053316;28;19936;-60
2021/10/05 00:47:49;;;;;;;;;;;;;;;;;;5052739;28;19931;-60
2021/10/05 00:50:17;;;;;;;;;;;;;;;;;;5050280;28;19925;-61
2021/10/05 00:52:44;;;;;;;;;;;;;;;;;;5054512;28;19932;-60
2021/10/05 00:55:11;;;;;;;;;;;;;;;;;;5054170;28;19925;-60
2021/10/05 00:57:37;;;;;;;;;;;;;;;;;;5054770;28;19931;-61
2021/10/05 01:00:04;;;;;;;;;;;;;;;;;;5049721;28;20084;-60
2021/10/05 01:02:31;;;;;;;;;;;;;;;;;;5052722;28;19925;-61
2021/10/05 01:04:58;;;;;;;;;;;;;;;;;;5053545;28;19925;-61
2021/10/05 01:07:25;;;;;;;;;;;;;;;;;;5051268;28;19931;-60
2021/10/05 01:09:52;;;;;;;;;;;;;;;;;;5049709;28;20336;-61
2021/10/05 01:12:19;;;;;;;;;;;;;;;;;;5053909;28;19924;-61
2021/10/05 01:14:46;;;;;;;;;;;;;;;;;;5047488;28;19940;-59
2021/10/05 01:17:13;;;;;;;;;;;;;;;;;;5049261;28;19933;-59
2021/10/05 01:19:40;;;;;;;;;;;;;;;;;;5051086;28;19924;-61
2021/10/05 01:22:07;;;;;;;;;;;;;;;;;;5055553;28;19932;-60
2021/10/05 01:24:34;;;;;;;;;;;;;;;;;;5052409;28;20284;-60
2021/10/05 01:27:01;;;;;;;;;;;;;;;;;;5050883;28;19924;-61
2021/10/05 01:29:28;;;;;;;;;;;;;;;;;;5054927;28;19925;-61
2021/10/05 01:31:55;;;;;;;;;;;;;;;;;;5052670;28;20316;-60
2021/10/05 01:34:22;;;;;;;;;;;;;;;;;;5052012;28;19929;-60
2021/10/05 01:36:49;;;;;;;;;;;;;;;;;;5051361;28;20274;-60
2021/10/05 01:39:16;;;;;;;;;;;;;;;;;;5052165;28;20377;-60
2021/10/05 01:41:43;;;;;;;;;;;;;;;;;;5053390;28;19928;-60
2021/10/05 01:44:10;;;;;;;;;;;;;;;;;;5054416;28;20979;-61
2021/10/05 01:46:37;;;;;;;;;;;;;;;;;;5048316;28;19932;-60
2021/10/05 01:49:04;;;;;;;;;;;;;;;;;;5048116;28;19939;-58
2021/10/05 01:51:31;;;;;;;;;;;;;;;;;;5051414;28;20376;-60
2021/10/05 01:53:57;;;;;;;;;;;;;;;;;;5046051;28;20075;-58
2021/10/05 01:56:24;;;;;;;;;;;;;;;;;;5052679;28;19936;-59
2021/10/05 01:58:51;;;;;;;;;;;;;;;;;;5052565;28;19925;-59
2021/10/05 02:01:18;;;;;;;;;;;;;;;;;;5053911;28;19924;-61
2021/10/05 02:03:45;;;;;;;;;;;;;;;;;;5050926;28;19932;-59
2021/10/05 02:06:12;;;;;;;;;;;;;;;;;;5052473;28;20289;-59
2021/10/05 02:08:39;;;;;;;;;;;;;;;;;;5050742;28;19925;-61
2021/10/05 02:11:06;;;;;;;;;;;;;;;;;;5048099;28;20002;-60
2021/10/05 02:13:34;;;;;;;;;;;;;;;;;;5054042;28;19932;-59
2021/10/05 02:16:01;;;;;;;;;;;;;;;;;;5047758;28;19925;-61
2021/10/05 02:18:28;;;;;;;;;;;;;;;;;;5047513;28;19931;-61
2021/10/05 02:20:55;;;;;;;;;;;;;;;;;;5053620;28;19932;-61
2021/10/05 02:23:23;;;;;;;;;;;;;;;;;;5049454;28;20282;-60
2021/10/05 02:25:49;;;;;;;;;;;;;;;;;;5054007;28;20028;-61
2021/10/05 02:28:15;;;;;;;;;;;;;;;;;;5053960;28;19966;-60
2021/10/05 02:30:43;;;;;;;;;;;;;;;;;;5053247;28;19925;-61
2021/10/05 02:33:09;;;;;;;;;;;;;;;;;;5052005;28;19979;-61
2021/10/05 02:35:36;;;;;;;;;;;;;;;;;;5049587;28;19933;-60
2021/10/05 02:38:03;;;;;;;;;;;;;;;;;;5050184;28;19925;-61
2021/10/05 02:40:30;;;;;;;;;;;;;;;;;;5054932;28;19932;-60
2021/10/05 02:42:57;;;;;;;;;;;;;;;;;;5042641;28;19932;-61
2021/10/05 02:45:24;;;;;;;;;;;;;;;;;;5049266;28;19928;-61
2021/10/05 02:47:51;;;;;;;;;;;;;;;;;;5053083;28;19931;-59
2021/10/05 02:50:18;;;;;;;;;;;;;;;;;;5050936;28;19928;-59
2021/10/05 02:52:45;;;;;;;;;;;;;;;;;;5048886;28;19946;-61
2021/10/05 02:55:12;;;;;;;;;;;;;;;;;;5048024;28;19936;-61
2021/10/05 02:57:39;;;;;;;;;;;;;;;;;;5048138;28;20416;-61
2021/10/05 03:00:06;;;;;;;;;;;;;;;;;;5054368;28;19924;-61
2021/10/05 03:02:33;;;;;;;;;;;;;;;;;;5044777;28;20131;-61
2021/10/05 03:05:00;;;;;;;;;;;;;;;;;;5051480;28;19925;-61
2021/10/05 03:07:27;;;;;;;;;;;;;;;;;;5046707;28;19936;-61
2021/10/05 03:09:54;;;;;;;;;;;;;;;;;;5051795;28;19925;-62
2021/10/05 03:12:20;;;;;;;;;;;;;;;;;;5052653;28;19929;-62
2021/10/05 03:14:47;;;;;;;;;;;;;;;;;;5049204;28;19931;-61
2021/10/05 03:17:14;;;;;;;;;;;;;;;;;;5047863;28;20415;-59
2021/10/05 03:19:41;;;;;;;;;;;;;;;;;;5049582;28;19928;-60
2021/10/05 03:22:09;;;;;;;;;;;;;;;;;;5049639;28;19947;-60
2021/10/05 03:24:36;;;;;;;;;;;;;;;;;;5049209;28;20337;-60
2021/10/05 03:27:03;;;;;;;;;;;;;;;;;;5050935;28;20310;-60
2021/10/05 03:29:30;;;;;;;;;;;;;;;;;;5052475;28;19925;-59
2021/10/05 03:31:57;;;;;;;;;;;;;;;;;;5054711;28;19932;-60
2021/10/05 03:34:24;;;;;;;;;;;;;;;;;;5049865;28;20369;-60
2021/10/05 03:36:51;;;;;;;;;;;;;;;;;;5049228;28;20265;-59
2021/10/05 03:39:19;;;;;;;;;;;;;;;;;;5049732;28;19931;-59
2021/10/05 03:41:46;;;;;;;;;;;;;;;;;;5053851;28;20446;-60
2021/10/05 03:44:13;;;;;;;;;;;;;;;;;;5059900;22;19944;-64
2021/10/05 03:46:40;;;;;;;;;;;;;;;;;;5049743;28;19968;-64
2021/10/05 03:49:07;;;;;;;;;;;;;;;;;;5045923;28;19932;-63
2021/10/05 03:51:34;;;;;;;;;;;;;;;;;;5042542;28;19925;-63
2021/10/05 03:54:00;;;;;;;;;;;;;;;;;;5035230;28;19933;-63
2021/10/05 03:56:27;;;;;;;;;;;;;;;;;;5024206;28;20392;-63
2021/10/05 03:58:54;;;;;;;;;;;;;;;;;;5027003;28;19929;-63
2021/10/05 04:01:21;;;;;;;;;;;;;;;;;;5020945;28;19926;-63
2021/10/05 04:03:48;;;;;;;;;;;;;;;;;;5022911;28;20288;-63
2021/10/05 04:06:15;;;;;;;;;;;;;;;;;;5025417;28;20289;-63
2021/10/05 04:08:42;;;;;;;;;;;;;;;;;;5027185;28;19929;-62
2021/10/05 04:11:09;;;;;;;;;;;;;;;;;;5031370;28;20342;-63
2021/10/05 04:13:36;;;;;;;;;;;;;;;;;;5027737;28;20027;-63
2021/10/05 04:16:03;;;;;;;;;;;;;;;;;;5028380;28;19931;-64
2021/10/05 04:18:30;;;;;;;;;;;;;;;;;;5027570;28;19932;-63
2021/10/05 04:20:57;;;;;;;;;;;;;;;;;;5030669;28;19925;-64
2021/10/05 04:23:24;;;;;;;;;;;;;;;;;;5027024;28;19925;-63
2021/10/05 04:25:51;;;;;;;;;;;;;;;;;;5025663;28;20296;-63
2021/10/05 04:28:18;;;;;;;;;;;;;;;;;;5028331;28;19925;-63
2021/10/05 04:30:45;;;;;;;;;;;;;;;;;;5024361;28;19925;-64
2021/10/05 04:33:12;;;;;;;;;;;;;;;;;;5027963;28;19932;-64
2021/10/05 04:35:39;;;;;;;;;;;;;;;;;;5026753;28;19925;-63
2021/10/05 04:38:07;;;;;;;;;;;;;;;;;;5027773;28;19932;-63
2021/10/05 04:40:34;;;;;;;;;;;;;;;;;;5021550;28;19944;-61
2021/10/05 04:43:01;;;;;;;;;;;;;;;;;;5028522;28;20270;-62
2021/10/05 04:45:28;;;;;;;;;;;;;;;;;;5029676;28;19925;-61
2021/10/05 04:47:55;;;;;;;;;;;;;;;;;;5029362;28;19925;-62
2021/10/05 04:50:21;;;;;;;;;;;;;;;;;;5027913;28;20593;-62
2021/10/05 04:52:48;;;;;;;;;;;;;;;;;;5029279;28;19925;-63
2021/10/05 04:55:15;;;;;;;;;;;;;;;;;;5029612;28;19931;-62
2021/10/05 04:57:42;;;;;;;;;;;;;;;;;;5024173;28;19939;-62
2021/10/05 05:00:09;;;;;;;;;;;;;;;;;;5027537;28;19932;-62
2021/10/05 05:02:36;;;;;;;;;;;;;;;;;;5023703;28;19988;-62
2021/10/05 05:05:03;;;;;;;;;;;;;;;;;;5027666;28;20020;-62
2021/10/05 05:07:30;;;;;;;;;;;;;;;;;;5024975;28;19925;-62
2021/10/05 05:09:57;;;;;;;;;;;;;;;;;;5029098;28;19925;-58
2021/10/05 05:12:24;;;;;;;;;;;;;;;;;;5027284;28;19925;-58
2021/10/05 05:14:51;;;;;;;;;;;;;;;;;;5024534;28;19933;-61
2021/10/05 05:17:18;;;;;;;;;;;;;;;;;;5028988;28;20297;-62
2021/10/05 05:19:44;;;;;;;;;;;;;;;;;;5033959;28;19925;-62
2021/10/05 05:22:12;;;;;;;;;;;;;;;;;;5030292;28;19933;-62
2021/10/05 05:24:38;;;;;;;;;;;;;;;;;;5027945;28;20169;-62
2021/10/05 05:27:05;;;;;;;;;;;;;;;;;;5029312;28;19929;-62
2021/10/05 05:29:32;;;;;;;;;;;;;;;;;;5030175;28;19979;-61
2021/10/05 05:31:59;;;;;;;;;;;;;;;;;;5036229;28;20016;-62
2021/10/05 05:34:26;;;;;;;;;;;;;;;;;;5034494;28;20368;-60
2021/10/05 05:36:53;;;;;;;;;;;;;;;;;;5034329;28;20269;-61
2021/10/05 05:39:20;;;;;;;;;;;;;;;;;;5032797;28;19936;-60
2021/10/05 05:41:47;;;;;;;;;;;;;;;;;;5032442;28;19929;-62
2021/10/05 05:44:14;;;;;;;;;;;;;;;;;;5031538;28;19925;-62
2021/10/05 05:46:41;;;;;;;;;;;;;;;;;;5031117;28;20581;-60
2021/10/05 05:49:08;;;;;;;;;;;;;;;;;;5028805;28;19933;-62
2021/10/05 05:51:36;;;;;;;;;;;;;;;;;;5029963;28;19933;-61
2021/10/05 05:54:03;;;;;;;;;;;;;;;;;;5030407;28;20025;-62
2021/10/05 05:56:30;;;;;;;;;;;;;;;;;;5030538;28;19980;-64
2021/10/05 05:58:59;;;;;;;;;;;;;;;;;;5030316;28;19925;-61
2021/10/05 06:01:26;;;;;;;;;;;;;;;;;;5030031;28;20019;-62
2021/10/05 06:03:53;;;;;;;;;;;;;;;;;;5030770;28;21439;-62
2021/10/05 06:06:20;;;;;;;;;;;;;;;;;;5032105;28;20277;-58
2021/10/05 06:08:48;;;;;;;;;;;;;;;;;;5031903;28;19933;-58
2021/10/05 06:11:17;;;;;;;;;;;;;;;;;;5030674;28;20055;-61
2021/10/05 06:13:44;;;;;;;;;;;;;;;;;;5027383;28;20008;-61
2021/10/05 06:16:11;;;;;;;;;;;;;;;;;;5036119;28;20301;-62
2021/10/05 06:18:38;;;;;;;;;;;;;;;;;;5024878;28;19925;-62
2021/10/05 06:21:05;;;;;;;;;;;;;;;;;;5030505;28;19933;-62
2021/10/05 06:23:32;;;;;;;;;;;;;;;;;;5028517;28;19929;-61
2021/10/05 06:25:59;;;;;;;;;;;;;;;;;;5027820;28;19932;-62
2021/10/05 06:28:26;;;;;;;;;;;;;;;;;;5028368;28;19932;-62
2021/10/05 06:30:53;;;;;;;;;;;;;;;;;;5037490;28;19929;-61
2021/10/05 06:33:20;;;;;;;;;;;;;;;;;;5036646;28;19932;-60
2021/10/05 06:35:47;;;;;;;;;;;;;;;;;;5017789;28;20048;-61
2021/10/05 06:38:14;;;;;;;;;;;;;;;;;;5019142;28;19932;-59
2021/10/05 06:40:41;;;;;;;;;;;;;;;;;;5015746;28;19936;-59
2021/10/05 06:43:08;;;;;;;;;;;;;;;;;;5023447;28;19925;-57
2021/10/05 06:45:35;;;;;;;;;;;;;;;;;;5017399;28;20301;-61
2021/10/05 06:48:02;;;;;;;;;;;;;;;;;;5021605;28;19936;-60
2021/10/05 06:50:30;;;;;;;;;;;;;;;;;;5022258;28;19925;-60
2021/10/05 06:52:57;;;;;;;;;;;;;;;;;;5016696;28;19991;-61
2021/10/05 06:55:24;;;;;;;;;;;;;;;;;;5018271;28;21254;-58
2021/10/05 06:57:51;;;;;;;;;;;;;;;;;;5020909;28;19932;-61
2021/10/05 07:00:18;;;;;;;;;;;;;;;;;;5027125;28;19925;-59
2021/10/05 07:02:45;;;;;;;;;;;;;;;;;;5017380;28;20042;-60
2021/10/05 07:05:12;;;;;;;;;;;;;;;;;;5022251;28;19951;-60
2021/10/05 07:07:39;;;;;;;;;;;;;;;;;;5025640;28;19933;-61
2021/10/05 07:10:06;;;;;;;;;;;;;;;;;;5022993;28;19929;-60
2021/10/05 07:12:33;;;;;;;;;;;;;;;;;;5021915;28;19933;-61
2021/10/05 07:15:01;;;;;;;;;;;;;;;;;;5019964;28;19929;-61
2021/10/05 07:17:28;;;;;;;;;;;;;;;;;;5021088;28;19948;-60
2021/10/05 07:19:55;;;;;;;;;;;;;;;;;;5019298;28;20050;-60
2021/10/05 07:22:22;;;;;;;;;;;;;;;;;;5018995;28;19933;-61
2021/10/05 07:24:49;;;;;;;;;;;;;;;;;;5016851;28;19929;-59
2021/10/05 07:27:16;;;;;;;;;;;;;;;;;;5014433;28;19929;-61
2021/10/05 07:29:43;;;;;;;;;;;;;;;;;;5021940;28;20317;-59
2021/10/05 07:32:10;;;;;;;;;;;;;;;;;;5023575;28;19925;-61
2021/10/05 07:34:37;;;;;;;;;;;;;;;;;;5023491;28;19949;-61
2021/10/05 07:37:04;;;;;;;;;;;;;;;;;;5026404;28;19933;-61
2021/10/05 07:39:31;;;;;;;;;;;;;;;;;;5025116;28;19932;-61
2021/10/05 07:41:58;;;;;;;;;;;;;;;;;;5028038;28;19947;-62
2021/10/05 07:44:25;;;;;;;;;;;;;;;;;;5022992;28;20380;-60
2021/10/05 07:46:52;;;;;;;;;;;;;;;;;;5024735;28;20030;-61
2021/10/05 07:49:19;;;;;;;;;;;;;;;;;;5021218;28;19933;-63
2021/10/05 07:51:46;;;;;;;;;;;;;;;;;;5021360;28;19925;-62
2021/10/05 07:54:13;;;;;;;;;;;;;;;;;;5026529;28;20088;-61
2021/10/05 07:56:40;;;;;;;;;;;;;;;;;;5027468;28;19925;-61
2021/10/05 07:59:07;;;;;;;;;;;;;;;;;;5019669;28;19925;-60
2021/10/05 08:01:36;;;;;;;;;;;;;;;;;;5013149;28;20309;-62
2021/10/05 08:04:03;;;;;;;;;;;;;;;;;;5020339;28;19929;-61
2021/10/05 08:06:30;;;;;;;;;;;;;;;;;;5024413;28;19925;-61
2021/10/05 08:08:57;;;;;;;;;;;;;;;;;;5017503;28;19925;-62
2021/10/05 08:11:24;;;;;;;;;;;;;;;;;;5016626;28;19932;-62
2021/10/05 08:13:51;;;;;;;;;;;;;;;;;;5019721;28;19929;-64
2021/10/05 08:16:20;;;;;;;;;;;;;;;;;;5023390;28;19932;-63
2021/10/05 08:18:47;;;;;;;;;;;;;;;;;;5020482;28;19925;-63
2021/10/05 08:21:16;;;;;;;;;;;;;;;;;;5017243;28;20024;-60
2021/10/05 08:23:45;;;;;;;;;;;;;;;;;;5021032;28;19933;-62
2021/10/05 08:26:12;;;;;;;;;;;;;;;;;;5022639;28;19941;-63
2021/10/05 08:28:39;;;;;;;;;;;;;;;;;;5020963;28;20392;-63
2021/10/05 08:31:06;;;;;;;;;;;;;;;;;;5025051;28;20000;-63
2021/10/05 08:33:33;;;;;;;;;;;;;;;;;;5022587;28;19929;-63
2021/10/05 08:35:59;;;;;;;;;;;;;;;;;;5022944;28;19932;-63
2021/10/05 08:38:26;;;;;;;;;;;;;;;;;;5024219;28;20218;-63
2021/10/05 08:40:53;;;;;;;;;;;;;;;;;;5023013;28;19933;-63
2021/10/05 08:43:20;;;;;;;;;;;;;;;;;;5026251;28;20289;-61
2021/10/05 08:45:47;;;;;;;;;;;;;;;;;;5017906;28;19933;-62
2021/10/05 08:48:15;;;;;;;;;;;;;;;;;;5017986;28;20406;-63
2021/10/05 08:50:42;;;;;;;;;;;;;;;;;;5013454;28;19925;-62
2021/10/05 08:53:09;;;;;;;;;;;;;;;;;;5019037;28;19933;-63
2021/10/05 08:55:36;;;;;;;;;;;;;;;;;;5026232;28;19925;-63
2021/10/05 08:58:03;;;;;;;;;;;;;;;;;;5027208;28;19936;-60
2021/10/05 09:00:30;;;;;;;;;;;;;;;;;;5030838;28;19925;-61
2021/10/05 09:02:57;;;;;;;;;;;;;;;;;;5022983;28;19925;-62
2021/10/05 09:05:24;;;;;;;;;;;;;;;;;;5028676;28;19925;-61
2021/10/05 09:07:51;;;;;;;;;;;;;;;;;;5028521;28;19925;-62
2021/10/05 09:10:18;;;;;;;;;;;;;;;;;;5028403;28;19926;-63
2021/10/05 09:12:45;;;;;;;;;;;;;;;;;;5027486;28;19925;-63
2021/10/05 09:15:14;;;;;;;;;;;;;;;;;;5031034;28;20296;-63
2021/10/05 09:17:41;;;;;;;;;;;;;;;;;;5021687;28;20324;-62
2021/10/05 09:20:08;;;;;;;;;;;;;;;;;;5024277;28;19925;-63
2021/10/05 09:22:35;;;;;;;;;;;;;;;;;;5026368;28;19936;-61
2021/10/05 09:25:02;;;;;;;;;;;;;;;;;;5025441;28;19937;-60
2021/10/05 09:27:29;;;;;;;;;;;;;;;;;;5027558;28;20382;-60
2021/10/05 09:29:57;;;;;;;;;;;;;;;;;;5023341;28;19925;-61
2021/10/05 09:32:26;;;;;;;;;;;;;;;;;;5028270;28;20455;-62
2021/10/05 09:34:54;;;;;;;;;;;;;;;;;;5025727;28;19932;-62
2021/10/05 09:37:21;;;;;;;;;;;;;;;;;;5025784;28;20015;-61
2021/10/05 09:39:48;;;;;;;;;;;;;;;;;;5026863;28;19932;-62
2021/10/05 09:42:15;;;;;;;;;;;;;;;;;;5024619;28;19926;-61
2021/10/05 09:44:42;;;;;;;;;;;;;;;;;;5056388;22;19933;-64
2021/10/05 09:47:09;;;;;;;;;;;;;;;;;;5040559;28;19939;-64
2021/10/05 09:49:36;;;;;;;;;;;;;;;;;;5042643;28;19928;-65
2021/10/05 09:52:03;;;;;;;;;;;;;;;;;;5036459;28;19932;-67
2021/10/05 09:54:29;;;;;;;;;;;;;;;;;;5036545;28;19933;-66
2021/10/05 09:56:56;;;;;;;;;;;;;;;;;;5035154;28;19929;-66
2021/10/05 09:59:23;;;;;;;;;;;;;;;;;;5036406;28;19932;-65
2021/10/05 10:01:50;;;;;;;;;;;;;;;;;;5039204;28;19936;-66
2021/10/05 10:04:17;;;;;;;;;;;;;;;;;;5045087;28;19939;-65
2021/10/05 10:06:44;;;;;;;;;;;;;;;;;;5045632;28;19960;-65
2021/10/05 10:09:11;;;;;;;;;;;;;;;;;;5030177;28;20327;-65
2021/10/05 10:11:38;;;;;;;;;;;;;;;;;;5035316;28;19933;-65
2021/10/05 10:14:05;;;;;;;;;;;;;;;;;;5042676;28;20305;-66
2021/10/05 10:16:32;;;;;;;;;;;;;;;;;;5045499;28;19924;-66
2021/10/05 10:18:59;;;;;;;;;;;;;;;;;;5046953;28;20389;-65
2021/10/05 10:21:28;;;;;;;;;;;;;;;;;;5043710;28;19925;-65
2021/10/05 10:23:56;;;;;;;;;;;;;;;;;;5041643;28;19925;-66
2021/10/05 10:26:23;;;;;;;;;;;;;;;;;;5046759;28;19925;-65
2021/10/05 10:28:50;;;;;;;;;;;;;;;;;;5041711;28;19925;-64
2021/10/05 10:31:17;;;;;;;;;;;;;;;;;;5044223;28;20005;-65
2021/10/05 10:33:44;;;;;;;;;;;;;;;;;;5040236;28;19924;-65
2021/10/05 10:36:11;;;;;;;;;;;;;;;;;;5044548;28;19929;-66
2021/10/05 10:38:42;;;;;;;;;;;;;;;;;;5038926;28;20011;-68
2021/10/05 10:41:09;;;;;;;;;;;;;;;;;;5036704;28;19967;-65
2021/10/05 10:43:36;;;;;;;;;;;;;;;;;;5037370;28;19929;-64
2021/10/05 10:46:03;;;;;;;;;;;;;;;;;;5038112;28;19931;-65
2021/10/05 10:48:30;;;;;;;;;;;;;;;;;;5036875;28;19968;-64
2021/10/05 10:50:57;;;;;;;;;;;;;;;;;;5038345;28;19928;-64
2021/10/05 10:53:31;;;;;;;;;;;;;;;;;;5032935;28;19931;-66
2021/10/05 10:55:58;;;;;;;;;;;;;;;;;;5038619;28;19929;-65
2021/10/05 10:58:25;;;;;;;;;;;;;;;;;;5038064;28;19928;-65
2021/10/05 11:00:52;;;;;;;;;;;;;;;;;;5036846;28;19939;-65
2021/10/05 11:03:19;;;;;;;;;;;;;;;;;;5045995;28;19925;-65
2021/10/05 11:05:46;;;;;;;;;;;;;;;;;;5039397;28;19943;-65
2021/10/05 11:08:13;;;;;;;;;;;;;;;;;;5044018;28;19995;-66
2021/10/05 11:10:40;;;;;;;;;;;;;;;;;;5045057;28;20308;-65
2021/10/05 11:13:07;;;;;;;;;;;;;;;;;;5045022;28;19931;-67
2021/10/05 11:15:34;;;;;;;;;;;;;;;;;;5041830;28;19932;-66
2021/10/05 11:18:01;;;;;;;;;;;;;;;;;;5039483;28;20420;-67
2021/10/05 11:20:28;;;;;;;;;;;;;;;;;;5044859;28;20303;-65
2021/10/05 11:22:55;;;;;;;;;;;;;;;;;;5044758;28;19925;-66
2021/10/05 11:25:22;;;;;;;;;;;;;;;;;;5036728;28;19933;-65
2021/10/05 11:27:49;;;;;;;;;;;;;;;;;;5036434;28;20281;-66
2021/10/05 11:30:16;;;;;;;;;;;;;;;;;;5038540;28;19929;-65
2021/10/05 11:32:43;;;;;;;;;;;;;;;;;;5046782;28;19924;-65
2021/10/05 11:35:10;;;;;;;;;;;;;;;;;;5044785;28;20359;-64
2021/10/05 11:37:37;;;;;;;;;;;;;;;;;;5046737;28;20015;-66
2021/10/05 11:40:04;;;;;;;;;;;;;;;;;;5038922;28;19925;-66
2021/10/05 11:42:31;;;;;;;;;;;;;;;;;;5043185;28;19935;-66
2021/10/05 11:44:58;;;;;;;;;;;;;;;;;;5043518;28;19925;-67
2021/10/05 11:47:25;;;;;;;;;;;;;;;;;;5041495;28;19924;-67
2021/10/05 11:49:52;;;;;;;;;;;;;;;;;;5042715;28;20418;-65
2021/10/05 11:52:19;;;;;;;;;;;;;;;;;;5042369;28;19929;-64
2021/10/05 11:54:46;;;;;;;;;;;;;;;;;;5033121;28;19932;-65
2021/10/05 11:57:13;;;;;;;;;;;;;;;;;;5039764;28;19961;-67
2021/10/05 11:59:40;;;;;;;;;;;;;;;;;;5045916;28;20438;-67
2021/10/05 12:02:07;;;;;;;;;;;;;;;;;;5046367;28;19924;-68
2021/10/05 12:04:34;;;;;;;;;;;;;;;;;;5043949;28;20016;-66
2021/10/05 12:07:01;;;;;;;;;;;;;;;;;;5043554;28;20388;-66
2021/10/05 12:09:28;;;;;;;;;;;;;;;;;;5041971;28;19951;-66
2021/10/05 12:11:57;;;;;;;;;;;;;;;;;;5039272;28;19931;-66
2021/10/05 12:14:27;;;;;;;;;;;;;;;;;;5044164;28;20003;-66
2021/10/05 12:16:54;;;;;;;;;;;;;;;;;;5045398;28;20071;-66
2021/10/05 12:19:21;;;;;;;;;;;;;;;;;;5037332;28;19932;-66
2021/10/05 12:21:48;;;;;;;;;;;;;;;;;;5042006;28;19928;-66
2021/10/05 12:24:15;;;;;;;;;;;;;;;;;;5042325;28;19944;-66
2021/10/05 12:26:42;;;;;;;;;;;;;;;;;;5043243;28;19951;-66
2021/10/05 12:29:11;;;;;;;;;;;;;;;;;;5041721;28;19932;-66
2021/10/05 12:31:37;;;;;;;;;;;;;;;;;;5050798;28;19925;-66
2021/10/05 12:34:04;;;;;;;;;;;;;;;;;;5048478;28;19925;-66
2021/10/05 12:36:31;;;;;;;;;;;;;;;;;;5048345;28;19925;-66
2021/10/05 12:38:59;;;;;;;;;;;;;;;;;;5048962;28;20380;-66
2021/10/05 12:41:26;;;;;;;;;;;;;;;;;;5047580;28;19928;-66
2021/10/05 12:43:53;;;;;;;;;;;;;;;;;;5047309;28;19933;-66
2021/10/05 12:46:21;;;;;;;;;;;;;;;;;;5049472;28;20119;-66
2021/10/05 12:48:48;;;;;;;;;;;;;;;;;;5046941;28;20286;-66
2021/10/05 12:51:15;;;;;;;;;;;;;;;;;;5046785;28;19925;-67
2021/10/05 12:53:42;;;;;;;;;;;;;;;;;;5044005;28;19932;-66
2021/10/05 12:56:09;;;;;;;;;;;;;;;;;;5042866;28;19931;-67
2021/10/05 12:58:36;;;;;;;;;;;;;;;;;;5049704;28;19932;-66
2021/10/05 13:01:03;;;;;;;;;;;;;;;;;;5047482;28;19929;-65
2021/10/05 13:03:33;;;;;;;;;;;;;;;;;;5049091;28;19924;-67
2021/10/05 13:06:00;;;;;;;;;;;;;;;;;;5049894;28;19925;-67
2021/10/05 13:08:27;;;;;;;;;;;;;;;;;;5048235;28;19931;-67
2021/10/05 13:10:54;;;;;;;;;;;;;;;;;;5048459;28;19936;-66
2021/10/05 13:13:21;;;;;;;;;;;;;;;;;;5048980;28;19929;-68
2021/10/05 13:15:47;;;;;;;;;;;;;;;;;;5050621;28;20387;-68
2021/10/05 13:18:14;;;;;;;;;;;;;;;;;;5047678;28;19932;-67
2021/10/05 13:20:41;;;;;;;;;;;;;;;;;;5048992;28;19940;-66
2021/10/05 13:23:08;;;;;;;;;;;;;;;;;;5047766;28;19946;-66
2021/10/05 13:25:35;;;;;;;;;;;;;;;;;;5050569;28;19925;-66
2021/10/05 13:28:02;;;;;;;;;;;;;;;;;;5050642;28;20561;-66
2021/10/05 13:30:29;;;;;;;;;;;;;;;;;;5049157;28;19932;-65
2021/10/05 13:32:56;;;;;;;;;;;;;;;;;;5047275;28;19925;-66
2021/10/05 13:35:24;;;;;;;;;;;;;;;;;;5048410;28;19935;-67
2021/10/05 13:37:52;;;;;;;;;;;;;;;;;;5046672;28;20024;-67
2021/10/05 13:40:18;;;;;;;;;;;;;;;;;;5051055;28;19924;-66
2021/10/05 13:42:45;;;;;;;;;;;;;;;;;;5048749;28;19924;-67
2021/10/05 13:45:12;;;;;;;;;;;;;;;;;;5047826;28;20398;-66
2021/10/05 13:47:39;;;;;;;;;;;;;;;;;;5046106;28;20373;-65
2021/10/05 13:50:06;;;;;;;;;;;;;;;;;;5045832;28;20003;-66
2021/10/05 13:52:33;;;;;;;;;;;;;;;;;;5046189;28;20307;-68
2021/10/05 13:55:00;;;;;;;;;;;;;;;;;;5043399;28;19925;-67
2021/10/05 13:57:27;;;;;;;;;;;;;;;;;;5036247;28;19933;-67
2021/10/05 13:59:57;;;;;;;;;;;;;;;;;;5047198;28;19925;-66
2021/10/05 14:02:24;;;;;;;;;;;;;;;;;;5045908;28;19924;-66
2021/10/05 14:04:51;;;;;;;;;;;;;;;;;;5043513;28;19931;-67
2021/10/05 14:07:19;;;;;;;;;;;;;;;;;;5042785;28;20004;-67
2021/10/05 14:09:46;;;;;;;;;;;;;;;;;;5044385;28;19933;-66
2021/10/05 14:12:13;;;;;;;;;;;;;;;;;;5048363;28;20384;-66
2021/10/05 14:14:40;;;;;;;;;;;;;;;;;;5045045;28;19931;-67
2021/10/05 14:17:07;;;;;;;;;;;;;;;;;;5046819;28;19964;-66
2021/10/05 14:19:34;;;;;;;;;;;;;;;;;;5041004;28;19936;-66
2021/10/05 14:22:01;;;;;;;;;;;;;;;;;;5043417;28;19994;-65
2021/10/05 14:24:28;;;;;;;;;;;;;;;;;;5043509;28;19932;-67
2021/10/05 14:26:55;;;;;;;;;;;;;;;;;;5047490;28;20104;-66
2021/10/05 14:29:22;;;;;;;;;;;;;;;;;;5047950;28;19949;-66
2021/10/05 14:31:49;;;;;;;;;;;;;;;;;;5050042;28;20000;-66
2021/10/05 14:34:16;;;;;;;;;;;;;;;;;;5047269;28;20389;-66
2021/10/05 14:36:43;;;;;;;;;;;;;;;;;;5045999;28;19928;-66
2021/10/05 14:39:10;;;;;;;;;;;;;;;;;;5049113;28;19933;-66
2021/10/05 14:41:37;;;;;;;;;;;;;;;;;;5048330;28;19925;-66
2021/10/05 14:44:04;;;;;;;;;;;;;;;;;;5045543;28;19929;-67
2021/10/05 14:46:31;;;;;;;;;;;;;;;;;;5047916;28;20023;-67
2021/10/05 14:48:59;;;;;;;;;;;;;;;;;;5044961;28;19925;-67
2021/10/05 14:51:26;;;;;;;;;;;;;;;;;;5042920;28;19932;-68
2021/10/05 14:53:53;;;;;;;;;;;;;;;;;;5047034;28;19932;-67
2021/10/05 14:56:20;;;;;;;;;;;;;;;;;;5043491;28;19940;-68
2021/10/05 14:58:47;;;;;;;;;;;;;;;;;;5043077;28;19932;-67
2021/10/05 15:01:14;;;;;;;;;;;;;;;;;;5048667;28;20333;-68
2021/10/05 15:03:41;;;;;;;;;;;;;;;;;;5046919;28;19935;-67
2021/10/05 15:06:08;;;;;;;;;;;;;;;;;;5049835;28;19924;-66
2021/10/05 15:08:35;;;;;;;;;;;;;;;;;;5043674;28;20381;-67
2021/10/05 15:11:02;;;;;;;;;;;;;;;;;;5046707;28;19931;-68
2021/10/05 15:13:29;;;;;;;;;;;;;;;;;;5044529;28;20278;-67
2021/10/05 15:15:56;;;;;;;;;;;;;;;;;;5044856;28;19925;-67
2021/10/05 15:18:23;;;;;;;;;;;;;;;;;;5042803;28;19975;-68
2021/10/05 15:20:50;;;;;;;;;;;;;;;;;;5043946;28;20015;-67
2021/10/05 15:23:17;;;;;;;;;;;;;;;;;;5042526;28;19924;-68
2021/10/05 15:25:44;;;;;;;;;;;;;;;;;;5049469;28;19929;-67
2021/10/05 15:28:11;;;;;;;;;;;;;;;;;;5044926;28;20282;-67
2021/10/05 15:30:38;;;;;;;;;;;;;;;;;;5035609;28;19964;-67
2021/10/05 15:33:04;;;;;;;;;;;;;;;;;;5045223;28;19932;-68
2021/10/05 15:35:31;;;;;;;;;;;;;;;;;;5044641;28;19936;-67
2021/10/05 15:37:58;;;;;;;;;;;;;;;;;;5046689;28;20373;-68
2021/10/05 15:40:26;;;;;;;;;;;;;;;;;;5041539;28;19964;-68
2021/10/05 15:42:53;;;;;;;;;;;;;;;;;;5057455;22;19925;-62
2021/10/05 15:45:20;;;;;;;;;;;;;;;;;;5026236;28;19935;-62
2021/10/05 15:47:47;;;;;;;;;;;;;;;;;;5020698;28;19928;-61
2021/10/05 15:50:18;;;;;;;;;;;;;;;;;;5016619;28;19929;-62
2021/10/05 15:52:49;;;;;;;;;;;;;;;;;;5020944;28;19925;-62
2021/10/05 15:55:16;;;;;;;;;;;;;;;;;;5023665;28;19925;-62
2021/10/05 15:57:43;;;;;;;;;;;;;;;;;;5026751;28;20245;-62
2021/10/05 16:00:10;;;;;;;;;;;;;;;;;;5026639;28;19939;-62
2021/10/05 16:02:38;;;;;;;;;;;;;;;;;;5024579;28;19935;-61
2021/10/05 16:05:05;;;;;;;;;;;;;;;;;;5026391;28;19947;-61
2021/10/05 16:07:32;;;;;;;;;;;;;;;;;;5023784;28;20035;-62
2021/10/05 16:09:59;;;;;;;;;;;;;;;;;;5027144;28;20299;-61
2021/10/05 16:12:26;;;;;;;;;;;;;;;;;;5025715;28;19925;-62
2021/10/05 16:14:53;;;;;;;;;;;;;;;;;;5023403;28;20012;-61
2021/10/05 16:17:20;;;;;;;;;;;;;;;;;;5027494;28;19933;-62
2021/10/05 16:19:47;;;;;;;;;;;;;;;;;;5025714;28;20027;-62
2021/10/05 16:22:14;;;;;;;;;;;;;;;;;;5026996;28;20393;-62
2021/10/05 16:24:41;;;;;;;;;;;;;;;;;;5026350;28;19939;-62
2021/10/05 16:27:08;;;;;;;;;;;;;;;;;;5023492;28;20389;-62
2021/10/05 16:29:35;;;;;;;;;;;;;;;;;;5025948;28;19925;-62
2021/10/05 16:32:02;;;;;;;;;;;;;;;;;;5028104;28;20316;-62
2021/10/05 16:34:29;;;;;;;;;;;;;;;;;;5023154;28;19925;-62
2021/10/05 16:36:56;;;;;;;;;;;;;;;;;;5027936;28;19925;-62
2021/10/05 16:39:24;;;;;;;;;;;;;;;;;;5027134;28;19925;-62
2021/10/05 16:41:51;;;;;;;;;;;;;;;;;;5029915;28;19925;-62
2021/10/05 16:44:18;;;;;;;;;;;;;;;;;;5026086;28;20630;-63